createdAt,value
2022-08-30T00:02:26.299Z,42.22
2022-08-30T00:04:54.483Z,20.17
2022-08-30T00:07:22.576Z,28.65
2022-08-30T00:09:49.471Z,38.03
2022-08-30T00:12:16.428Z,42.40
2022-08-30T00:14:43.519Z,44.33
2022-08-30T00:17:10.463Z,35.28
2022-08-30T00:19:38.271Z,24.73
2022-08-30T00:22:07.304Z,38.35
2022-08-30T00:24:34.305Z,42.50
2022-08-30T00:27:01.205Z,32.72
2022-08-30T00:29:28.421Z,35.25
2022-08-30T00:31:55.321Z,32.50
2022-08-30T00:34:22.323Z,23.50
2022-08-30T00:36:49.269Z,39.25
2022-08-30T00:39:16.201Z,28.92
2022-08-30T00:41:43.154Z,39.78
2022-08-30T00:44:10.448Z,34.33
2022-08-30T00:46:37.509Z,41.28
2022-08-30T00:49:07.867Z,42.45
2022-08-30T00:51:35.487Z,40.25
2022-08-30T00:54:04.277Z,31.52
2022-08-30T00:56:32.426Z,25.70
2022-08-30T00:59:02.477Z,45.25
2022-08-30T01:01:32.218Z,34.15
2022-08-30T01:04:02.444Z,39.72
2022-08-30T01:06:32.546Z,23.08
2022-08-30T01:09:01.753Z,37.42
2022-08-30T01:11:31.195Z,34.22
2022-08-30T01:13:58.678Z,43.13
2022-08-30T01:16:27.307Z,44.75
2022-08-30T01:19:00.485Z,33.53
2022-08-30T01:21:54.532Z,22.40
2022-08-30T01:24:22.317Z,25.42
2022-08-30T01:26:49.991Z,22.75
2022-08-30T01:29:22.002Z,45.85
2022-08-30T01:31:49.535Z,50.30
2022-08-30T01:34:16.602Z,45.63
2022-08-30T01:36:46.367Z,32.20
2022-08-30T01:39:16.118Z,29.58
2022-08-30T01:41:43.776Z,26.52
2022-08-30T01:44:12.610Z,39.30
2022-08-30T01:46:43.822Z,30.35
2022-08-30T01:49:14.362Z,39.10
2022-08-30T01:51:42.217Z,30.83
2022-08-30T01:54:10.454Z,34.75
2022-08-30T01:56:37.577Z,37.72
2022-08-30T01:59:05.264Z,31.05
2022-08-30T02:01:35.951Z,26.13
2022-08-30T02:04:04.596Z,37.78
2022-08-30T02:06:31.917Z,46.78
2022-08-30T02:08:59.628Z,42.22
2022-08-30T02:11:26.945Z,21.55
2022-08-30T02:13:54.762Z,26.38
2022-08-30T02:16:23.991Z,28.77
2022-08-30T02:18:53.221Z,33.28
2022-08-30T02:21:21.317Z,43.60
2022-08-30T02:23:48.385Z,27.02
2022-08-30T02:26:16.485Z,29.45
2022-08-30T02:28:49.889Z,32.85
2022-08-30T02:31:20.377Z,31.98
2022-08-30T02:33:50.762Z,35.63
2022-08-30T02:36:18.543Z,36.58
2022-08-30T02:38:46.398Z,31.35
2022-08-30T02:41:13.730Z,39.63
2022-08-30T02:43:40.799Z,32.30
2022-08-30T02:46:08.545Z,32.38
2022-08-30T02:48:35.512Z,27.48
2022-08-30T02:51:09.524Z,48.78
2022-08-30T02:53:39.383Z,39.22
2022-08-30T02:56:06.385Z,29.70
2022-08-30T02:58:33.523Z,46.72
2022-08-30T03:01:00.558Z,55.72
2022-08-30T03:03:27.812Z,61.47
2022-08-30T03:05:54.821Z,73.20
2022-08-30T03:08:22.944Z,68.88
2022-08-30T03:10:50.387Z,68.90
2022-08-30T03:13:17.531Z,66.82
2022-08-30T03:15:44.700Z,52.70
2022-08-30T03:18:11.675Z,71.00
2022-08-30T03:20:38.873Z,69.20
2022-08-30T03:23:05.841Z,41.70
2022-08-30T03:25:33.970Z,51.38
2022-08-30T03:28:01.291Z,53.25
2022-08-30T03:30:28.363Z,48.78
2022-08-30T03:32:55.355Z,42.55
2022-08-30T03:35:22.384Z,49.40
2022-08-30T03:37:49.781Z,49.40
2022-08-30T03:40:23.437Z,27.88
2022-08-30T03:42:50.851Z,49.60
2022-08-30T03:45:19.384Z,41.38
2022-08-30T03:47:46.741Z,38.90
2022-08-30T03:50:15.770Z,39.85
2022-08-30T03:52:42.980Z,46.60
2022-08-30T03:55:10.062Z,57.30
2022-08-30T03:57:36.988Z,28.75
2022-08-30T04:00:07.060Z,56.15
2022-08-30T04:02:38.868Z,49.80
2022-08-30T04:05:06.400Z,80.40
2022-08-30T04:07:33.326Z,78.82
2022-08-30T04:10:01.052Z,74.88
2022-08-30T04:12:28.070Z,81.50
2022-08-30T04:14:55.121Z,61.42
2022-08-30T04:17:22.112Z,52.97
2022-08-30T04:19:49.038Z,70.22
2022-08-30T04:22:16.204Z,61.63
2022-08-30T04:24:43.332Z,56.20
2022-08-30T04:27:10.768Z,62.30
2022-08-30T04:29:37.777Z,64.53
2022-08-30T04:32:05.031Z,62.88
2022-08-30T04:34:32.147Z,60.90
2022-08-30T04:36:59.163Z,64.72
2022-08-30T04:39:26.226Z,57.95
2022-08-30T04:41:53.285Z,59.90
2022-08-30T04:44:20.268Z,49.17
2022-08-30T04:46:47.970Z,37.13
2022-08-30T04:49:15.063Z,45.20
2022-08-30T04:51:42.131Z,58.17
2022-08-30T04:54:09.070Z,69.35
2022-08-30T04:56:36.118Z,55.30
2022-08-30T04:59:03.104Z,49.83
2022-08-30T05:01:32.242Z,54.50
2022-08-30T05:04:13.795Z,57.75
2022-08-30T05:06:40.887Z,40.97
2022-08-30T05:09:07.776Z,44.40
2022-08-30T05:11:34.832Z,38.08
2022-08-30T05:14:01.779Z,38.47
2022-08-30T05:16:28.823Z,56.13
2022-08-30T05:18:55.896Z,44.15
2022-08-30T05:21:26.679Z,33.70
2022-08-30T05:23:56.196Z,43.63
2022-08-30T05:26:27.642Z,64.78
2022-08-30T05:28:55.236Z,56.08
2022-08-30T05:31:28.720Z,49.33
2022-08-30T05:33:56.058Z,52.47
2022-08-30T05:36:26.707Z,62.10
2022-08-30T05:38:54.734Z,62.78
2022-08-30T05:41:26.523Z,48.78
2022-08-30T05:43:56.819Z,73.97
2022-08-30T05:46:24.536Z,59.55
2022-08-30T05:48:52.108Z,67.93
2022-08-30T05:51:21.768Z,59.72
2022-08-30T05:53:50.152Z,58.50
2022-08-30T05:56:20.696Z,57.35
2022-08-30T05:58:48.174Z,42.72
2022-08-30T06:01:23.168Z,73.95
2022-08-30T06:03:53.667Z,47.08
2022-08-30T06:06:22.729Z,59.78
2022-08-30T06:08:50.486Z,53.72
2022-08-30T06:11:20.135Z,62.33
2022-08-30T06:13:48.108Z,52.03
2022-08-30T06:16:17.852Z,55.13
2022-08-30T06:18:45.212Z,61.53
2022-08-30T06:21:26.102Z,46.45
2022-08-30T06:23:54.391Z,62.90
2022-08-30T06:26:21.618Z,41.97
2022-08-30T06:28:49.479Z,52.42
2022-08-30T06:31:18.342Z,54.80
2022-08-30T06:33:45.885Z,53.47
2022-08-30T06:36:23.090Z,60.10
2022-08-30T06:38:52.364Z,69.00
2022-08-30T06:41:22.528Z,56.85
2022-08-30T06:43:50.030Z,75.30
2022-08-30T06:46:26.479Z,88.90
2022-08-30T06:48:56.095Z,63.40
2022-08-30T06:51:43.664Z,78.18
2022-08-30T06:54:12.508Z,69.10
2022-08-30T06:56:55.297Z,60.78
2022-08-30T06:59:24.792Z,48.85
2022-08-30T07:01:52.222Z,49.65
2022-08-30T07:04:19.237Z,37.38
2022-08-30T07:06:46.285Z,34.85
2022-08-30T07:09:13.231Z,43.83
2022-08-30T07:11:42.062Z,27.95
2022-08-30T07:14:09.405Z,30.27
2022-08-30T07:16:36.556Z,31.40
2022-08-30T07:19:05.427Z,45.28
2022-08-30T07:21:33.872Z,33.58
2022-08-30T07:24:01.662Z,34.15
2022-08-30T07:26:32.907Z,35.35
2022-08-30T07:29:00.049Z,39.97
2022-08-30T07:31:27.006Z,37.05
2022-08-30T07:33:54.707Z,41.17
2022-08-30T07:36:22.800Z,36.65
2022-08-30T07:38:51.558Z,38.75
2022-08-30T07:41:35.698Z,35.30
2022-08-30T07:44:02.967Z,41.10
2022-08-30T07:46:30.195Z,41.22
2022-08-30T07:49:00.088Z,35.15
2022-08-30T07:51:29.224Z,45.00
2022-08-30T07:53:56.834Z,29.30
2022-08-30T07:56:24.998Z,49.10
2022-08-30T07:58:53.042Z,22.80
2022-08-30T08:01:22.341Z,32.67
2022-08-30T08:03:50.626Z,27.65
2022-08-30T08:06:19.991Z,23.10
2022-08-30T08:08:47.201Z,39.70
2022-08-30T08:11:28.439Z,34.30
2022-08-30T08:13:58.745Z,30.00
2022-08-30T08:16:27.533Z,29.83
2022-08-30T08:18:55.510Z,33.42
2022-08-30T08:21:24.109Z,55.05
2022-08-30T08:23:51.562Z,34.85
2022-08-30T08:26:19.878Z,28.95
2022-08-30T08:28:47.505Z,22.45
2022-08-30T08:31:27.120Z,17.17
2022-08-30T08:33:56.534Z,26.40
2022-08-30T08:36:23.597Z,29.58
2022-08-30T08:38:50.679Z,35.15
2022-08-30T08:41:35.935Z,49.55
2022-08-30T08:44:19.194Z,18.73
2022-08-30T08:46:52.408Z,27.50
2022-08-30T08:49:19.613Z,31.27
2022-08-30T08:52:05.697Z,27.52
2022-08-30T08:54:52.713Z,21.77
2022-08-30T08:57:24.462Z,55.60
2022-08-30T08:59:54.596Z,37.05
2022-08-30T09:02:30.344Z,28.58
2022-08-30T09:05:02.081Z,31.92
2022-08-30T09:07:41.414Z,30.13
2022-08-30T09:10:08.925Z,14.25
2022-08-30T09:12:36.153Z,28.92
2022-08-30T09:15:11.717Z,23.48
2022-08-30T09:17:52.502Z,25.02
2022-08-30T09:20:41.413Z,15.88
2022-08-30T09:23:14.416Z,14.75
2022-08-30T09:26:05.401Z,13.90
2022-08-30T09:28:43.920Z,18.52
2022-08-30T09:31:23.718Z,20.77
2022-08-30T09:34:15.835Z,20.55
2022-08-30T09:36:52.067Z,20.63
2022-08-30T09:39:41.486Z,188.57
2022-08-30T09:42:20.818Z,75.93
2022-08-30T09:44:47.862Z,96.18
2022-08-30T09:47:31.772Z,27.77
2022-08-30T09:50:27.339Z,148.18
2022-08-30T09:53:11.931Z,58.55
2022-08-30T09:56:03.637Z,126.80
2022-08-30T09:58:52.417Z,13.65
2022-08-30T10:01:24.979Z,16.20
2022-08-30T10:04:02.473Z,28.17
2022-08-30T10:07:16.499Z,22.77
2022-08-30T10:10:03.007Z,14.80
2022-08-30T10:12:57.292Z,26.00
2022-08-30T10:15:30.980Z,27.17
2022-08-30T10:20:59.670Z,22.42
2022-08-30T10:23:40.804Z,27.55
2022-08-30T10:26:26.626Z,14.00
2022-08-30T10:29:04.583Z,20.67
2022-08-30T10:31:56.526Z,22.45
2022-08-30T10:34:54.639Z,22.00
2022-08-30T10:37:25.709Z,19.38
2022-08-30T10:40:22.473Z,22.75
2022-08-30T10:42:52.864Z,13.50
2022-08-30T10:45:22.324Z,29.02
2022-08-30T10:47:59.860Z,39.42
2022-08-30T10:50:41.033Z,14.30
2022-08-30T10:53:21.575Z,24.83
2022-08-30T10:56:05.980Z,24.13
2022-08-30T10:58:33.506Z,24.10
2022-08-30T11:01:06.198Z,20.92
2022-08-30T11:03:39.832Z,31.90
2022-08-30T11:06:27.576Z,15.50
2022-08-30T11:09:09.928Z,23.40
2022-08-30T11:11:40.773Z,10.93
2022-08-30T11:14:12.894Z,19.25
2022-08-30T11:16:44.132Z,11.02
2022-08-30T11:19:35.324Z,15.15
2022-08-30T11:22:21.946Z,21.98
2022-08-30T11:25:10.006Z,22.63
2022-08-30T11:27:51.472Z,22.42
2022-08-30T11:30:26.727Z,23.17
2022-08-30T11:33:17.478Z,22.30
2022-08-30T11:35:52.771Z,16.67
2022-08-30T11:41:30.060Z,15.93
2022-08-30T11:44:13.583Z,34.57
2022-08-30T11:46:42.282Z,17.85
2022-08-30T11:49:15.616Z,20.45
2022-08-30T11:55:03.835Z,18.95
2022-08-30T11:57:52.214Z,29.40
2022-08-30T12:00:35.134Z,14.98
2022-08-30T12:03:07.732Z,25.25
2022-08-30T12:05:48.192Z,19.55
2022-08-30T12:08:21.337Z,38.38
2022-08-30T12:11:11.257Z,23.52
2022-08-30T12:13:38.211Z,24.98
2022-08-30T12:16:14.223Z,19.90
2022-08-30T12:18:49.649Z,29.13
2022-08-30T12:21:22.710Z,18.42
2022-08-30T12:24:04.365Z,27.00
2022-08-30T12:26:38.218Z,10.77
2022-08-30T12:29:26.953Z,14.98
2022-08-30T12:31:59.105Z,13.20
2022-08-30T12:34:41.020Z,24.88
2022-08-30T12:37:28.894Z,24.88
2022-08-30T12:40:23.346Z,22.52
2022-08-30T12:43:00.360Z,20.17
2022-08-30T12:45:50.600Z,24.90
2022-08-30T12:48:19.746Z,20.45
2022-08-30T12:50:54.461Z,24.45
2022-08-30T12:53:27.962Z,24.98
2022-08-30T12:58:36.919Z,21.40
2022-08-30T13:01:18.517Z,31.42
2022-08-30T13:03:59.809Z,22.77
2022-08-30T13:06:43.875Z,26.95
2022-08-30T13:09:39.143Z,29.20
2022-08-30T13:12:09.930Z,29.58
2022-08-30T13:14:43.596Z,15.85
2022-08-30T13:17:20.418Z,23.15
2022-08-30T13:20:22.197Z,21.90
2022-08-30T13:23:09.758Z,21.80
2022-08-30T13:25:39.736Z,20.30
2022-08-30T13:28:08.445Z,18.85
2022-08-30T13:30:36.075Z,29.35
2022-08-30T13:33:03.298Z,22.10
2022-08-30T13:35:31.880Z,15.68
2022-08-30T13:38:02.035Z,17.63
2022-08-30T13:40:29.194Z,28.40
2022-08-30T13:42:56.980Z,14.60
2022-08-30T13:45:41.700Z,26.15
2022-08-30T13:48:10.913Z,26.85
2022-08-30T13:50:38.267Z,21.10
2022-08-30T13:53:05.863Z,17.15
2022-08-30T13:55:33.850Z,16.80
2022-08-30T13:58:00.857Z,18.77
2022-08-30T14:00:28.858Z,19.90
2022-08-30T14:02:57.553Z,36.88
2022-08-30T14:06:10.219Z,28.38
2022-08-30T14:08:45.197Z,17.38
2022-08-30T14:11:18.508Z,26.38
2022-08-30T14:16:36.105Z,31.67
2022-08-30T14:19:03.576Z,26.05
2022-08-30T14:21:33.145Z,20.10
2022-08-30T14:24:00.279Z,17.48
2022-08-30T14:26:32.750Z,22.65
2022-08-30T14:29:03.546Z,21.40
2022-08-30T14:31:32.717Z,25.15
2022-08-30T14:34:01.534Z,28.27
2022-08-30T14:36:30.957Z,21.73
2022-08-30T14:38:58.501Z,22.75
2022-08-30T14:41:25.697Z,17.05
2022-08-30T14:43:53.030Z,19.33
2022-08-30T14:46:20.279Z,35.00
2022-08-30T14:48:47.256Z,32.92
2022-08-30T14:51:18.782Z,16.52
2022-08-30T14:53:47.106Z,22.00
2022-08-30T14:56:16.776Z,28.45
2022-08-30T14:58:50.749Z,24.98
2022-08-30T15:01:19.225Z,27.58
2022-08-30T15:03:46.675Z,31.42
2022-08-30T15:06:14.267Z,26.95
2022-08-30T15:08:41.675Z,25.20
2022-08-30T15:11:17.852Z,38.08
2022-08-30T15:13:45.868Z,30.20
2022-08-30T15:16:20.544Z,24.60
2022-08-30T15:18:48.171Z,19.55
2022-08-30T15:21:21.889Z,16.85
2022-08-30T15:23:49.732Z,27.03
2022-08-30T15:26:18.570Z,26.35
2022-08-30T15:28:45.558Z,22.10
2022-08-30T15:31:13.095Z,33.13
2022-08-30T15:33:40.292Z,16.92
2022-08-30T15:36:09.003Z,20.17
2022-08-30T15:38:36.500Z,24.30
2022-08-30T15:41:07.459Z,21.58
2022-08-30T15:43:35.125Z,16.35
2022-08-30T15:46:19.662Z,29.05
2022-08-30T15:48:47.177Z,26.48
2022-08-30T15:51:16.761Z,37.08
2022-08-30T15:53:45.197Z,32.95
2022-08-30T15:56:12.546Z,24.95
2022-08-30T15:58:40.175Z,30.40
2022-08-30T16:01:07.930Z,28.00
2022-08-30T16:03:35.967Z,23.52
2022-08-30T16:06:05.098Z,18.20
2022-08-30T16:08:32.102Z,24.88
2022-08-30T16:10:59.004Z,25.17
2022-08-30T16:13:25.885Z,28.15
2022-08-30T16:15:52.914Z,28.85
2022-08-30T16:18:19.905Z,23.63
2022-08-30T16:20:47.412Z,22.23
2022-08-30T16:23:14.369Z,28.67
2022-08-30T16:25:41.546Z,25.85
2022-08-30T16:28:09.572Z,22.38
2022-08-30T16:30:37.177Z,26.88
2022-08-30T16:33:04.289Z,18.35
2022-08-30T16:35:33.118Z,26.98
2022-08-30T16:38:00.116Z,20.08
2022-08-30T16:40:27.572Z,30.88
2022-08-30T16:42:54.562Z,18.55
2022-08-30T16:45:21.501Z,24.58
2022-08-30T16:47:51.124Z,23.02
2022-08-30T16:50:21.600Z,23.60
2022-08-30T16:52:48.515Z,28.52
2022-08-30T16:55:16.038Z,25.98
2022-08-30T16:57:43.952Z,23.70
2022-08-30T17:00:13.263Z,27.63
2022-08-30T17:02:42.659Z,25.77
2022-08-30T17:05:21.233Z,28.23
2022-08-30T17:07:48.119Z,23.17
2022-08-30T17:10:15.556Z,42.35
2022-08-30T17:12:50.254Z,32.00
2022-08-30T17:15:17.615Z,28.77
2022-08-30T17:17:44.678Z,29.17
2022-08-30T17:20:12.612Z,27.73
2022-08-30T17:22:40.444Z,27.95
2022-08-30T17:25:08.740Z,38.47
2022-08-30T17:27:36.271Z,31.25
2022-08-30T17:30:06.711Z,41.55
2022-08-30T17:32:34.385Z,33.38
2022-08-30T17:35:02.122Z,32.40
2022-08-30T17:37:29.038Z,25.73
2022-08-30T17:39:56.185Z,40.47
2022-08-30T17:42:23.139Z,38.42
2022-08-30T17:44:58.031Z,36.13
2022-08-30T17:47:28.287Z,30.38
2022-08-30T17:49:55.650Z,39.85
2022-08-30T17:52:22.558Z,29.45
2022-08-30T17:54:50.662Z,30.08
2022-08-30T17:57:18.202Z,34.60
2022-08-30T17:59:45.911Z,33.53
2022-08-30T18:02:14.511Z,35.42
2022-08-30T18:04:42.716Z,31.65
2022-08-30T18:09:58.853Z,36.63
2022-08-30T18:12:27.585Z,33.28
2022-08-30T18:14:54.503Z,54.58
2022-08-30T18:17:21.637Z,27.67
2022-08-30T18:19:49.069Z,36.58
2022-08-30T18:22:16.723Z,30.55
2022-08-30T18:24:44.982Z,35.65
2022-08-30T18:27:12.130Z,35.13
2022-08-30T18:29:40.535Z,20.15
2022-08-30T18:32:09.206Z,29.15
2022-08-30T18:34:36.444Z,32.47
2022-08-30T18:37:03.502Z,28.80
2022-08-30T18:39:34.643Z,28.23
2022-08-30T18:42:02.965Z,46.42
2022-08-30T18:44:33.291Z,28.67
2022-08-30T18:47:01.950Z,29.23
2022-08-30T18:49:32.781Z,25.15
2022-08-30T18:52:01.059Z,23.27
2022-08-30T18:54:28.194Z,38.58
2022-08-30T18:56:55.177Z,23.27
2022-08-30T18:59:22.090Z,34.95
2022-08-30T19:01:50.266Z,21.38
2022-08-30T19:04:22.417Z,29.02
2022-08-30T19:06:57.342Z,25.73
2022-08-30T19:09:24.281Z,33.38
2022-08-30T19:11:53.969Z,29.85
2022-08-30T19:14:20.912Z,36.25
2022-08-30T19:16:48.236Z,34.80
2022-08-30T19:19:15.672Z,35.92
2022-08-30T19:21:42.876Z,25.98
2022-08-30T19:24:10.134Z,31.65
2022-08-30T19:26:38.496Z,35.42
2022-08-30T19:29:06.526Z,23.55
2022-08-30T19:31:34.122Z,39.80
2022-08-30T19:34:01.148Z,28.17
2022-08-30T19:36:29.046Z,40.38
2022-08-30T19:38:56.225Z,33.25
2022-08-30T19:41:23.747Z,37.97
2022-08-30T19:43:51.993Z,37.00
2022-08-30T19:46:18.907Z,29.13
2022-08-30T19:48:45.870Z,31.27
2022-08-30T19:51:15.190Z,33.47
2022-08-30T19:53:43.470Z,30.23
2022-08-30T19:56:11.617Z,37.80
2022-08-30T19:58:39.023Z,33.33
2022-08-30T20:01:12.345Z,30.90
2022-08-30T20:03:54.390Z,39.55
2022-08-30T20:06:23.950Z,29.05
2022-08-30T20:08:50.919Z,31.83
2022-08-30T20:11:23.616Z,30.80
2022-08-30T20:13:50.684Z,28.90
2022-08-30T20:16:17.981Z,31.60
2022-08-30T20:18:45.376Z,26.58
2022-08-30T20:21:14.683Z,19.65
2022-08-30T20:23:43.295Z,28.73
2022-08-30T20:24:26.427Z,20.58
2022-08-30T20:26:11.851Z,24.08
2022-08-30T20:28:39.902Z,21.45
2022-08-30T20:31:08.146Z,13.93
2022-08-30T20:33:39.258Z,16.88
2022-08-30T20:36:09.928Z,12.65
2022-08-30T20:38:37.633Z,22.58
2022-08-30T20:41:10.948Z,19.13
2022-08-30T20:43:38.681Z,14.38
2022-08-30T20:46:14.884Z,17.67
2022-08-30T20:48:43.568Z,23.38
2022-08-30T20:51:15.559Z,16.17
2022-08-30T20:53:43.396Z,14.50
2022-08-30T20:56:16.533Z,28.58
2022-08-30T20:58:44.063Z,14.02
2022-08-30T21:01:11.918Z,21.92
2022-08-30T21:03:40.243Z,15.70
2022-08-30T21:06:07.615Z,18.20
2022-08-30T21:08:34.905Z,16.55
2022-08-30T21:11:02.141Z,20.20
2022-08-30T21:13:30.112Z,23.55
2022-08-30T21:16:00.621Z,14.50
2022-08-30T21:18:33.214Z,23.70
2022-08-30T21:21:08.350Z,22.20
2022-08-30T21:23:35.849Z,14.73
2022-08-30T21:26:09.764Z,24.02
2022-08-30T21:28:36.966Z,25.13
2022-08-30T21:31:07.383Z,17.60
2022-08-30T21:33:34.788Z,14.70
2022-08-30T21:36:20.503Z,18.55
2022-08-30T21:38:47.503Z,18.10
2022-08-30T21:41:15.102Z,15.68
2022-08-30T21:43:42.017Z,22.85
2022-08-30T21:46:10.451Z,21.33
2022-08-30T21:48:37.831Z,16.85
2022-08-30T21:51:09.873Z,17.20
2022-08-30T21:53:37.729Z,21.15
2022-08-30T21:56:31.930Z,20.27
2022-08-30T21:58:58.950Z,20.75
2022-08-30T22:01:28.852Z,23.83
2022-08-30T22:03:58.380Z,21.80
2022-08-30T22:06:30.776Z,23.88
2022-08-30T22:09:01.254Z,28.20
2022-08-30T22:11:29.391Z,28.20
2022-08-30T22:13:56.365Z,32.50
2022-08-30T22:16:24.309Z,31.48
2022-08-30T22:18:51.542Z,15.88
2022-08-30T22:21:22.961Z,19.83
2022-08-30T22:23:50.871Z,19.65
2022-08-30T22:26:19.372Z,15.68
2022-08-30T22:28:46.890Z,13.88
2022-08-30T22:31:15.568Z,17.98
2022-08-30T22:33:43.863Z,17.30
2022-08-30T22:36:14.713Z,14.02
2022-08-30T22:38:41.661Z,18.85
2022-08-30T22:41:16.663Z,11.77
2022-08-30T22:43:44.837Z,18.35
2022-08-30T22:46:12.420Z,24.98
2022-08-30T22:48:41.937Z,21.65
2022-08-30T22:51:10.884Z,23.83
2022-08-30T22:53:37.880Z,21.23
2022-08-30T22:56:20.603Z,23.98
2022-08-30T22:58:48.780Z,31.23
2022-08-30T23:01:20.538Z,24.02
2022-08-30T23:03:47.567Z,20.75
2022-08-30T23:06:14.555Z,15.93
2022-08-30T23:11:08.904Z,19.27
2022-08-30T23:13:35.893Z,17.73
2022-08-30T23:16:05.390Z,22.08
2022-08-30T23:18:33.207Z,15.38
2022-08-30T23:21:13.046Z,17.52
2022-08-30T23:23:59.480Z,29.52
2022-08-30T23:26:45.573Z,11.18
2022-08-30T23:29:31.735Z,17.35
2022-08-30T23:32:17.345Z,15.23
2022-08-30T23:35:03.435Z,14.90
2022-08-30T23:37:53.131Z,20.75
2022-08-30T23:40:40.899Z,17.10
2022-08-30T23:43:27.412Z,24.05
2022-08-30T23:46:18.778Z,18.75
2022-08-30T23:49:06.445Z,22.33
2022-08-30T23:51:52.620Z,16.48
2022-08-30T23:54:38.185Z,25.65
2022-08-30T23:57:24.294Z,31.23
